sensor_id;sensor_type;location;lat;lon;timestamp;P1;durP1;ratioP1;P2;durP2;ratioP2
66603;SDS011;53460;39.612;8.822;2024-01-07T00:00:03;11.60;;;2.95;;
66603;SDS011;53460;39.612;8.822;2024-01-07T00:02:29;16.15;;;3.08;;
66603;SDS011;53460;39.612;8.822;2024-01-07T00:04:56;9.13;;;2.35;;
66603;SDS011;53460;39.612;8.822;2024-01-07T00:07:23;14.07;;;2.17;;
66603;SDS011;53460;39.612;8.822;2024-01-07T00:09:49;13.82;;;2.67;;
66603;SDS011;53460;39.612;8.822;2024-01-07T00:12:14;12.10;;;2.72;;
66603;SDS011;53460;39.612;8.822;2024-01-07T00:14:40;9.95;;;2.60;;
66603;SDS011;53460;39.612;8.822;2024-01-07T00:17:06;11.50;;;3.15;;
66603;SDS011;53460;39.612;8.822;2024-01-07T00:19:31;21.63;;;2.88;;
66603;SDS011;53460;39.612;8.822;2024-01-07T00:21:57;8.63;;;2.45;;
66603;SDS011;53460;39.612;8.822;2024-01-07T00:24:23;12.32;;;3.47;;
66603;SDS011;53460;39.612;8.822;2024-01-07T00:26:51;10.57;;;2.40;;
66603;SDS011;53460;39.612;8.822;2024-01-07T00:29:17;12.52;;;2.75;;
66603;SDS011;53460;39.612;8.822;2024-01-07T00:31:42;10.93;;;2.40;;
66603;SDS011;53460;39.612;8.822;2024-01-07T00:34:08;7.18;;;2.38;;
66603;SDS011;53460;39.612;8.822;2024-01-07T00:36:34;11.02;;;2.72;;
66603;SDS011;53460;39.612;8.822;2024-01-07T00:38:59;8.32;;;2.63;;
66603;SDS011;53460;39.612;8.822;2024-01-07T00:41:25;17.00;;;3.63;;
66603;SDS011;53460;39.612;8.822;2024-01-07T00:43:50;13.02;;;2.45;;
66603;SDS011;53460;39.612;8.822;2024-01-07T00:46:16;12.10;;;2.72;;
66603;SDS011;53460;39.612;8.822;2024-01-07T00:48:42;9.63;;;2.47;;
66603;SDS011;53460;39.612;8.822;2024-01-07T00:51:07;10.63;;;3.08;;
66603;SDS011;53460;39.612;8.822;2024-01-07T00:53:34;9.20;;;2.17;;
66603;SDS011;53460;39.612;8.822;2024-01-07T00:55:59;6.55;;;1.88;;
66603;SDS011;53460;39.612;8.822;2024-01-07T00:58:25;9.05;;;2.63;;
66603;SDS011;53460;39.612;8.822;2024-01-07T01:00:51;8.82;;;2.20;;
66603;SDS011;53460;39.612;8.822;2024-01-07T01:03:19;12.65;;;2.55;;
66603;SDS011;53460;39.612;8.822;2024-01-07T01:05:45;10.02;;;2.13;;
66603;SDS011;53460;39.612;8.822;2024-01-07T01:08:11;9.02;;;2.50;;
66603;SDS011;53460;39.612;8.822;2024-01-07T01:10:36;12.88;;;2.25;;
66603;SDS011;53460;39.612;8.822;2024-01-07T01:13:02;15.57;;;2.85;;
66603;SDS011;53460;39.612;8.822;2024-01-07T01:15:28;12.50;;;2.90;;
66603;SDS011;53460;39.612;8.822;2024-01-07T01:17:54;11.35;;;3.00;;
66603;SDS011;53460;39.612;8.822;2024-01-07T01:20:19;11.15;;;2.70;;
66603;SDS011;53460;39.612;8.822;2024-01-07T01:22:46;11.32;;;2.70;;
66603;SDS011;53460;39.612;8.822;2024-01-07T01:25:11;10.13;;;2.00;;
66603;SDS011;53460;39.612;8.822;2024-01-07T01:27:37;14.15;;;2.58;;
66603;SDS011;53460;39.612;8.822;2024-01-07T01:30:03;10.77;;;2.70;;
66603;SDS011;53460;39.612;8.822;2024-01-07T01:32:29;10.75;;;2.65;;
66603;SDS011;53460;39.612;8.822;2024-01-07T01:34:55;9.63;;;1.88;;
66603;SDS011;53460;39.612;8.822;2024-01-07T01:37:20;10.40;;;2.60;;
66603;SDS011;53460;39.612;8.822;2024-01-07T01:39:46;7.82;;;2.28;;
66603;SDS011;53460;39.612;8.822;2024-01-07T01:42:12;11.27;;;2.05;;
66603;SDS011;53460;39.612;8.822;2024-01-07T01:44:38;9.43;;;2.03;;
66603;SDS011;53460;39.612;8.822;2024-01-07T01:47:05;9.70;;;2.00;;
66603;SDS011;53460;39.612;8.822;2024-01-07T01:49:32;9.30;;;1.83;;
66603;SDS011;53460;39.612;8.822;2024-01-07T01:51:58;6.90;;;1.95;;
66603;SDS011;53460;39.612;8.822;2024-01-07T01:54:24;21.15;;;2.88;;
66603;SDS011;53460;39.612;8.822;2024-01-07T01:56:50;4.30;;;1.63;;
66603;SDS011;53460;39.612;8.822;2024-01-07T01:59:17;9.00;;;2.58;;
66603;SDS011;53460;39.612;8.822;2024-01-07T02:01:44;3.83;;;1.65;;
66603;SDS011;53460;39.612;8.822;2024-01-07T02:04:10;6.30;;;1.83;;
66603;SDS011;53460;39.612;8.822;2024-01-07T02:06:35;6.10;;;1.90;;
66603;SDS011;53460;39.612;8.822;2024-01-07T02:09:02;7.32;;;2.08;;
66603;SDS011;53460;39.612;8.822;2024-01-07T02:11:27;8.70;;;1.50;;
66603;SDS011;53460;39.612;8.822;2024-01-07T02:13:53;9.18;;;1.80;;
66603;SDS011;53460;39.612;8.822;2024-01-07T02:16:19;9.10;;;2.13;;
66603;SDS011;53460;39.612;8.822;2024-01-07T02:18:45;13.68;;;2.67;;
66603;SDS011;53460;39.612;8.822;2024-01-07T02:21:12;6.65;;;1.60;;
66603;SDS011;53460;39.612;8.822;2024-01-07T02:23:38;6.35;;;2.13;;
66603;SDS011;53460;39.612;8.822;2024-01-07T02:26:04;13.38;;;2.33;;
66603;SDS011;53460;39.612;8.822;2024-01-07T02:28:31;11.40;;;2.20;;
66603;SDS011;53460;39.612;8.822;2024-01-07T02:30:58;9.20;;;1.73;;
66603;SDS011;53460;39.612;8.822;2024-01-07T02:33:23;5.55;;;1.85;;
66603;SDS011;53460;39.612;8.822;2024-01-07T02:35:49;7.88;;;2.00;;
66603;SDS011;53460;39.612;8.822;2024-01-07T02:38:15;4.68;;;1.58;;
66603;SDS011;53460;39.612;8.822;2024-01-07T02:40:41;8.15;;;1.67;;
66603;SDS011;53460;39.612;8.822;2024-01-07T02:43:07;7.10;;;2.00;;
66603;SDS011;53460;39.612;8.822;2024-01-07T02:45:33;8.80;;;1.83;;
66603;SDS011;53460;39.612;8.822;2024-01-07T02:48:00;8.68;;;1.60;;
66603;SDS011;53460;39.612;8.822;2024-01-07T02:50:25;6.65;;;1.90;;
66603;SDS011;53460;39.612;8.822;2024-01-07T02:52:51;7.60;;;1.95;;
66603;SDS011;53460;39.612;8.822;2024-01-07T02:55:18;5.03;;;1.40;;
66603;SDS011;53460;39.612;8.822;2024-01-07T02:57:43;7.55;;;1.80;;
66603;SDS011;53460;39.612;8.822;2024-01-07T03:00:09;11.07;;;1.83;;
66603;SDS011;53460;39.612;8.822;2024-01-07T03:02:35;7.65;;;1.83;;
66603;SDS011;53460;39.612;8.822;2024-01-07T03:05:01;9.02;;;1.88;;
66603;SDS011;53460;39.612;8.822;2024-01-07T03:07:27;10.48;;;2.22;;
66603;SDS011;53460;39.612;8.822;2024-01-07T03:09:53;8.45;;;2.13;;
66603;SDS011;53460;39.612;8.822;2024-01-07T03:12:18;9.40;;;2.30;;
66603;SDS011;53460;39.612;8.822;2024-01-07T03:14:44;9.00;;;2.03;;
66603;SDS011;53460;39.612;8.822;2024-01-07T03:17:10;11.63;;;2.47;;
66603;SDS011;53460;39.612;8.822;2024-01-07T03:19:39;11.98;;;2.30;;
66603;SDS011;53460;39.612;8.822;2024-01-07T03:22:05;10.57;;;2.20;;
66603;SDS011;53460;39.612;8.822;2024-01-07T03:24:32;7.57;;;1.58;;
66603;SDS011;53460;39.612;8.822;2024-01-07T03:26:58;8.85;;;2.72;;
66603;SDS011;53460;39.612;8.822;2024-01-07T03:29:23;5.47;;;1.75;;
66603;SDS011;53460;39.612;8.822;2024-01-07T03:31:49;6.28;;;2.17;;
66603;SDS011;53460;39.612;8.822;2024-01-07T03:34:16;8.18;;;1.85;;
66603;SDS011;53460;39.612;8.822;2024-01-07T03:36:41;9.05;;;2.15;;
66603;SDS011;53460;39.612;8.822;2024-01-07T03:39:07;3.95;;;1.30;;
66603;SDS011;53460;39.612;8.822;2024-01-07T03:41:33;9.43;;;1.95;;
66603;SDS011;53460;39.612;8.822;2024-01-07T03:43:59;6.53;;;1.75;;
66603;SDS011;53460;39.612;8.822;2024-01-07T03:46:24;7.95;;;2.17;;
66603;SDS011;53460;39.612;8.822;2024-01-07T03:48:50;9.45;;;2.55;;
66603;SDS011;53460;39.612;8.822;2024-01-07T03:51:16;13.65;;;2.53;;
66603;SDS011;53460;39.612;8.822;2024-01-07T03:53:41;5.07;;;1.90;;
66603;SDS011;53460;39.612;8.822;2024-01-07T03:56:07;13.10;;;2.05;;
66603;SDS011;53460;39.612;8.822;2024-01-07T03:58:32;7.15;;;2.03;;
66603;SDS011;53460;39.612;8.822;2024-01-07T04:00:59;7.50;;;2.20;;
66603;SDS011;53460;39.612;8.822;2024-01-07T04:03:25;7.93;;;2.42;;
66603;SDS011;53460;39.612;8.822;2024-01-07T04:05:51;6.90;;;1.70;;
66603;SDS011;53460;39.612;8.822;2024-01-07T04:08:17;9.65;;;1.90;;
66603;SDS011;53460;39.612;8.822;2024-01-07T04:10:42;7.47;;;1.77;;
66603;SDS011;53460;39.612;8.822;2024-01-07T04:13:08;8.32;;;2.20;;
66603;SDS011;53460;39.612;8.822;2024-01-07T04:15:33;8.43;;;2.13;;
66603;SDS011;53460;39.612;8.822;2024-01-07T04:18:05;9.50;;;1.90;;
66603;SDS011;53460;39.612;8.822;2024-01-07T04:20:31;4.93;;;1.60;;
66603;SDS011;53460;39.612;8.822;2024-01-07T04:22:57;7.03;;;1.70;;
66603;SDS011;53460;39.612;8.822;2024-01-07T04:25:25;6.53;;;1.98;;
66603;SDS011;53460;39.612;8.822;2024-01-07T04:27:51;9.48;;;1.50;;
66603;SDS011;53460;39.612;8.822;2024-01-07T04:30:17;10.50;;;1.75;;
66603;SDS011;53460;39.612;8.822;2024-01-07T04:32:43;5.20;;;1.73;;
66603;SDS011;53460;39.612;8.822;2024-01-07T04:35:08;6.53;;;1.63;;
66603;SDS011;53460;39.612;8.822;2024-01-07T04:37:34;6.40;;;1.58;;
66603;SDS011;53460;39.612;8.822;2024-01-07T04:40:01;9.52;;;1.90;;
66603;SDS011;53460;39.612;8.822;2024-01-07T04:42:27;10.82;;;2.17;;
66603;SDS011;53460;39.612;8.822;2024-01-07T04:44:53;5.93;;;1.48;;
66603;SDS011;53460;39.612;8.822;2024-01-07T04:47:25;6.97;;;2.28;;
66603;SDS011;53460;39.612;8.822;2024-01-07T04:49:55;10.52;;;2.92;;
66603;SDS011;53460;39.612;8.822;2024-01-07T04:52:24;5.75;;;1.75;;
66603;SDS011;53460;39.612;8.822;2024-01-07T04:54:53;9.40;;;2.40;;
66603;SDS011;53460;39.612;8.822;2024-01-07T04:57:20;9.85;;;2.13;;
66603;SDS011;53460;39.612;8.822;2024-01-07T04:59:46;7.32;;;1.63;;
66603;SDS011;53460;39.612;8.822;2024-01-07T05:02:13;10.57;;;3.30;;
66603;SDS011;53460;39.612;8.822;2024-01-07T05:04:39;8.05;;;3.25;;
66603;SDS011;53460;39.612;8.822;2024-01-07T05:07:05;12.55;;;2.25;;
66603;SDS011;53460;39.612;8.822;2024-01-07T05:09:31;10.60;;;2.28;;
66603;SDS011;53460;39.612;8.822;2024-01-07T05:11:57;5.35;;;2.28;;
66603;SDS011;53460;39.612;8.822;2024-01-07T05:14:23;9.45;;;2.60;;
66603;SDS011;53460;39.612;8.822;2024-01-07T05:16:49;8.52;;;2.70;;
66603;SDS011;53460;39.612;8.822;2024-01-07T05:19:14;4.97;;;1.73;;
66603;SDS011;53460;39.612;8.822;2024-01-07T05:21:40;11.25;;;2.10;;
66603;SDS011;53460;39.612;8.822;2024-01-07T05:24:06;9.93;;;2.00;;
66603;SDS011;53460;39.612;8.822;2024-01-07T05:26:37;5.53;;;1.98;;
66603;SDS011;53460;39.612;8.822;2024-01-07T05:29:05;4.25;;;1.27;;
66603;SDS011;53460;39.612;8.822;2024-01-07T05:31:30;8.27;;;1.90;;
66603;SDS011;53460;39.612;8.822;2024-01-07T05:33:56;8.80;;;2.00;;
66603;SDS011;53460;39.612;8.822;2024-01-07T05:36:22;8.85;;;1.63;;
66603;SDS011;53460;39.612;8.822;2024-01-07T05:38:48;7.38;;;2.15;;
66603;SDS011;53460;39.612;8.822;2024-01-07T05:41:13;10.45;;;2.10;;
66603;SDS011;53460;39.612;8.822;2024-01-07T05:43:39;7.05;;;2.33;;
66603;SDS011;53460;39.612;8.822;2024-01-07T05:46:05;12.65;;;2.45;;
66603;SDS011;53460;39.612;8.822;2024-01-07T05:48:40;7.25;;;2.40;;
66603;SDS011;53460;39.612;8.822;2024-01-07T05:51:07;3.85;;;2.15;;
66603;SDS011;53460;39.612;8.822;2024-01-07T05:53:34;8.55;;;2.20;;
66603;SDS011;53460;39.612;8.822;2024-01-07T05:55:59;6.20;;;1.40;;
66603;SDS011;53460;39.612;8.822;2024-01-07T05:58:25;9.75;;;2.30;;
66603;SDS011;53460;39.612;8.822;2024-01-07T06:00:51;7.75;;;1.60;;
66603;SDS011;53460;39.612;8.822;2024-01-07T06:03:17;8.48;;;3.70;;
66603;SDS011;53460;39.612;8.822;2024-01-07T06:05:43;6.70;;;3.38;;
66603;SDS011;53460;39.612;8.822;2024-01-07T06:08:09;10.75;;;3.58;;
66603;SDS011;53460;39.612;8.822;2024-01-07T06:10:35;6.07;;;2.55;;
66603;SDS011;53460;39.612;8.822;2024-01-07T06:13:01;4.65;;;1.35;;
66603;SDS011;53460;39.612;8.822;2024-01-07T06:15:28;6.45;;;1.85;;
66603;SDS011;53460;39.612;8.822;2024-01-07T06:17:54;4.50;;;1.60;;
66603;SDS011;53460;39.612;8.822;2024-01-07T06:20:20;6.82;;;1.52;;
66603;SDS011;53460;39.612;8.822;2024-01-07T06:22:46;5.97;;;1.80;;
66603;SDS011;53460;39.612;8.822;2024-01-07T06:25:12;8.32;;;2.25;;
66603;SDS011;53460;39.612;8.822;2024-01-07T06:27:38;6.93;;;2.05;;
66603;SDS011;53460;39.612;8.822;2024-01-07T06:30:05;9.27;;;1.63;;
66603;SDS011;53460;39.612;8.822;2024-01-07T06:32:31;8.68;;;2.03;;
66603;SDS011;53460;39.612;8.822;2024-01-07T06:34:57;6.60;;;2.92;;
66603;SDS011;53460;39.612;8.822;2024-01-07T06:37:23;7.35;;;1.42;;
66603;SDS011;53460;39.612;8.822;2024-01-07T06:39:49;5.95;;;1.40;;
66603;SDS011;53460;39.612;8.822;2024-01-07T06:42:15;8.70;;;1.88;;
66603;SDS011;53460;39.612;8.822;2024-01-07T06:44:40;4.10;;;1.67;;
66603;SDS011;53460;39.612;8.822;2024-01-07T06:47:06;5.07;;;1.45;;
66603;SDS011;53460;39.612;8.822;2024-01-07T06:49:32;9.00;;;2.33;;
66603;SDS011;53460;39.612;8.822;2024-01-07T06:51:58;9.30;;;1.95;;
66603;SDS011;53460;39.612;8.822;2024-01-07T06:54:24;5.78;;;2.10;;
66603;SDS011;53460;39.612;8.822;2024-01-07T06:56:50;7.85;;;2.50;;
66603;SDS011;53460;39.612;8.822;2024-01-07T06:59:16;7.38;;;2.03;;
66603;SDS011;53460;39.612;8.822;2024-01-07T07:01:42;5.82;;;1.90;;
66603;SDS011;53460;39.612;8.822;2024-01-07T07:04:07;14.85;;;3.42;;
66603;SDS011;53460;39.612;8.822;2024-01-07T07:06:33;6.90;;;2.53;;
66603;SDS011;53460;39.612;8.822;2024-01-07T07:08:59;8.75;;;2.20;;
66603;SDS011;53460;39.612;8.822;2024-01-07T07:11:26;10.77;;;2.70;;
66603;SDS011;53460;39.612;8.822;2024-01-07T07:13:51;7.18;;;2.38;;
66603;SDS011;53460;39.612;8.822;2024-01-07T07:16:17;9.82;;;2.97;;
66603;SDS011;53460;39.612;8.822;2024-01-07T07:18:43;13.20;;;5.20;;
66603;SDS011;53460;39.612;8.822;2024-01-07T07:21:08;11.55;;;4.05;;
66603;SDS011;53460;39.612;8.822;2024-01-07T07:23:34;11.38;;;5.22;;
66603;SDS011;53460;39.612;8.822;2024-01-07T07:26:00;7.30;;;3.30;;
66603;SDS011;53460;39.612;8.822;2024-01-07T07:28:25;10.73;;;3.47;;
66603;SDS011;53460;39.612;8.822;2024-01-07T07:30:52;9.23;;;4.32;;
66603;SDS011;53460;39.612;8.822;2024-01-07T07:33:18;8.25;;;2.38;;
66603;SDS011;53460;39.612;8.822;2024-01-07T07:35:44;10.98;;;2.10;;
66603;SDS011;53460;39.612;8.822;2024-01-07T07:38:10;7.15;;;2.20;;
66603;SDS011;53460;39.612;8.822;2024-01-07T07:40:35;7.38;;;3.00;;
66603;SDS011;53460;39.612;8.822;2024-01-07T07:43:01;6.57;;;1.90;;
66603;SDS011;53460;39.612;8.822;2024-01-07T07:45:27;7.47;;;2.15;;
66603;SDS011;53460;39.612;8.822;2024-01-07T07:47:52;7.28;;;2.20;;
66603;SDS011;53460;39.612;8.822;2024-01-07T07:50:18;8.18;;;2.17;;
66603;SDS011;53460;39.612;8.822;2024-01-07T07:52:44;7.03;;;2.08;;
66603;SDS011;53460;39.612;8.822;2024-01-07T07:55:09;9.27;;;2.35;;
66603;SDS011;53460;39.612;8.822;2024-01-07T07:57:36;8.10;;;1.95;;
66603;SDS011;53460;39.612;8.822;2024-01-07T08:00:03;3.85;;;1.83;;
66603;SDS011;53460;39.612;8.822;2024-01-07T08:02:32;4.35;;;1.80;;
66603;SDS011;53460;39.612;8.822;2024-01-07T08:04:58;4.78;;;1.65;;
66603;SDS011;53460;39.612;8.822;2024-01-07T08:07:24;2.92;;;1.38;;
66603;SDS011;53460;39.612;8.822;2024-01-07T08:09:51;3.85;;;1.65;;
66603;SDS011;53460;39.612;8.822;2024-01-07T08:12:16;6.30;;;2.53;;
66603;SDS011;53460;39.612;8.822;2024-01-07T08:14:42;6.28;;;2.25;;
66603;SDS011;53460;39.612;8.822;2024-01-07T08:17:08;7.60;;;2.10;;
66603;SDS011;53460;39.612;8.822;2024-01-07T08:19:33;9.80;;;2.97;;
66603;SDS011;53460;39.612;8.822;2024-01-07T08:21:59;14.75;;;7.38;;
66603;SDS011;53460;39.612;8.822;2024-01-07T08:24:25;6.70;;;2.70;;
66603;SDS011;53460;39.612;8.822;2024-01-07T08:26:50;7.30;;;3.83;;
66603;SDS011;53460;39.612;8.822;2024-01-07T08:29:17;8.60;;;2.42;;
66603;SDS011;53460;39.612;8.822;2024-01-07T08:31:43;13.18;;;3.25;;
66603;SDS011;53460;39.612;8.822;2024-01-07T08:34:08;7.75;;;2.00;;
66603;SDS011;53460;39.612;8.822;2024-01-07T08:36:34;5.72;;;1.90;;
66603;SDS011;53460;39.612;8.822;2024-01-07T08:39:00;5.28;;;2.85;;
66603;SDS011;53460;39.612;8.822;2024-01-07T08:41:25;6.82;;;2.63;;
66603;SDS011;53460;39.612;8.822;2024-01-07T08:43:52;4.32;;;1.45;;
66603;SDS011;53460;39.612;8.822;2024-01-07T08:46:21;6.30;;;2.20;;
66603;SDS011;53460;39.612;8.822;2024-01-07T08:48:46;7.63;;;2.10;;
66603;SDS011;53460;39.612;8.822;2024-01-07T08:51:12;7.72;;;2.47;;
66603;SDS011;53460;39.612;8.822;2024-01-07T08:53:39;5.75;;;2.15;;
66603;SDS011;53460;39.612;8.822;2024-01-07T08:56:05;9.45;;;2.45;;
66603;SDS011;53460;39.612;8.822;2024-01-07T08:58:32;12.45;;;2.20;;
66603;SDS011;53460;39.612;8.822;2024-01-07T09:00:58;8.05;;;2.33;;
66603;SDS011;53460;39.612;8.822;2024-01-07T09:03:23;12.02;;;2.63;;
66603;SDS011;53460;39.612;8.822;2024-01-07T09:05:49;14.48;;;3.55;;
66603;SDS011;53460;39.612;8.822;2024-01-07T09:08:15;10.85;;;2.53;;
66603;SDS011;53460;39.612;8.822;2024-01-07T09:10:41;8.00;;;3.65;;
66603;SDS011;53460;39.612;8.822;2024-01-07T09:13:06;8.32;;;3.00;;
66603;SDS011;53460;39.612;8.822;2024-01-07T09:15:32;10.07;;;3.45;;
66603;SDS011;53460;39.612;8.822;2024-01-07T09:17:57;6.32;;;2.33;;
66603;SDS011;53460;39.612;8.822;2024-01-07T09:20:23;8.18;;;2.03;;
66603;SDS011;53460;39.612;8.822;2024-01-07T09:22:49;6.70;;;2.40;;
66603;SDS011;53460;39.612;8.822;2024-01-07T09:25:15;11.18;;;2.80;;
66603;SDS011;53460;39.612;8.822;2024-01-07T09:27:41;7.00;;;2.80;;
66603;SDS011;53460;39.612;8.822;2024-01-07T09:30:08;9.50;;;3.63;;
66603;SDS011;53460;39.612;8.822;2024-01-07T09:32:36;12.15;;;4.30;;
66603;SDS011;53460;39.612;8.822;2024-01-07T09:35:02;8.18;;;3.85;;
66603;SDS011;53460;39.612;8.822;2024-01-07T09:37:27;10.13;;;3.92;;
66603;SDS011;53460;39.612;8.822;2024-01-07T09:39:53;6.32;;;2.92;;
66603;SDS011;53460;39.612;8.822;2024-01-07T09:42:19;10.48;;;3.42;;
66603;SDS011;53460;39.612;8.822;2024-01-07T09:44:45;13.20;;;4.03;;
66603;SDS011;53460;39.612;8.822;2024-01-07T09:47:14;11.88;;;4.47;;
66603;SDS011;53460;39.612;8.822;2024-01-07T09:49:41;10.90;;;3.50;;
66603;SDS011;53460;39.612;8.822;2024-01-07T09:52:08;10.80;;;3.00;;
66603;SDS011;53460;39.612;8.822;2024-01-07T09:54:36;10.45;;;3.13;;
66603;SDS011;53460;39.612;8.822;2024-01-07T09:57:03;13.85;;;3.38;;
66603;SDS011;53460;39.612;8.822;2024-01-07T09:59:33;9.35;;;3.17;;
66603;SDS011;53460;39.612;8.822;2024-01-07T10:01:59;11.95;;;2.90;;
66603;SDS011;53460;39.612;8.822;2024-01-07T10:04:25;8.77;;;2.55;;
66603;SDS011;53460;39.612;8.822;2024-01-07T10:07:01;8.75;;;2.63;;
66603;SDS011;53460;39.612;8.822;2024-01-07T10:09:32;12.65;;;2.85;;
66603;SDS011;53460;39.612;8.822;2024-01-07T10:11:58;11.95;;;2.83;;
66603;SDS011;53460;39.612;8.822;2024-01-07T10:14:24;9.20;;;3.38;;
66603;SDS011;53460;39.612;8.822;2024-01-07T10:16:54;8.05;;;2.67;;
66603;SDS011;53460;39.612;8.822;2024-01-07T10:19:20;7.75;;;2.47;;
66603;SDS011;53460;39.612;8.822;2024-01-07T10:21:48;6.57;;;2.25;;
66603;SDS011;53460;39.612;8.822;2024-01-07T10:24:25;15.00;;;2.88;;
66603;SDS011;53460;39.612;8.822;2024-01-07T10:26:50;10.80;;;3.05;;
66603;SDS011;53460;39.612;8.822;2024-01-07T10:29:16;10.20;;;2.53;;
66603;SDS011;53460;39.612;8.822;2024-01-07T10:31:41;12.90;;;2.25;;
66603;SDS011;53460;39.612;8.822;2024-01-07T10:34:11;11.38;;;3.03;;
66603;SDS011;53460;39.612;8.822;2024-01-07T10:36:39;8.57;;;2.90;;
66603;SDS011;53460;39.612;8.822;2024-01-07T10:39:06;10.50;;;3.05;;
66603;SDS011;53460;39.612;8.822;2024-01-07T10:41:32;7.65;;;2.80;;
66603;SDS011;53460;39.612;8.822;2024-01-07T10:44:00;5.05;;;2.47;;
66603;SDS011;53460;39.612;8.822;2024-01-07T10:46:26;9.70;;;2.30;;
66603;SDS011;53460;39.612;8.822;2024-01-07T10:48:55;8.13;;;2.08;;
66603;SDS011;53460;39.612;8.822;2024-01-07T10:51:27;5.93;;;1.88;;
66603;SDS011;53460;39.612;8.822;2024-01-07T10:53:53;6.57;;;2.05;;
66603;SDS011;53460;39.612;8.822;2024-01-07T10:56:25;4.80;;;1.92;;
66603;SDS011;53460;39.612;8.822;2024-01-07T10:58:58;2.53;;;1.40;;
66603;SDS011;53460;39.612;8.822;2024-01-07T11:01:25;6.85;;;2.03;;
66603;SDS011;53460;39.612;8.822;2024-01-07T11:04:01;6.72;;;1.92;;
66603;SDS011;53460;39.612;8.822;2024-01-07T11:06:39;6.57;;;1.63;;
66603;SDS011;53460;39.612;8.822;2024-01-07T11:09:21;7.10;;;1.95;;
66603;SDS011;53460;39.612;8.822;2024-01-07T11:11:54;10.43;;;3.05;;
66603;SDS011;53460;39.612;8.822;2024-01-07T11:14:34;11.80;;;3.33;;
66603;SDS011;53460;39.612;8.822;2024-01-07T11:17:08;7.00;;;2.35;;
66603;SDS011;53460;39.612;8.822;2024-01-07T11:19:37;11.75;;;3.28;;
66603;SDS011;53460;39.612;8.822;2024-01-07T11:22:22;6.85;;;3.67;;
66603;SDS011;53460;39.612;8.822;2024-01-07T11:24:55;9.38;;;2.60;;
66603;SDS011;53460;39.612;8.822;2024-01-07T11:27:22;8.07;;;2.65;;
66603;SDS011;53460;39.612;8.822;2024-01-07T11:30:01;13.00;;;2.55;;
66603;SDS011;53460;39.612;8.822;2024-01-07T11:32:30;6.88;;;2.50;;
66603;SDS011;53460;39.612;8.822;2024-01-07T11:35:00;8.27;;;2.38;;
66603;SDS011;53460;39.612;8.822;2024-01-07T11:37:27;9.38;;;2.15;;
66603;SDS011;53460;39.612;8.822;2024-01-07T11:39:57;7.28;;;1.65;;
66603;SDS011;53460;39.612;8.822;2024-01-07T11:42:23;9.55;;;2.20;;
66603;SDS011;53460;39.612;8.822;2024-01-07T11:44:55;6.45;;;2.28;;
66603;SDS011;53460;39.612;8.822;2024-01-07T11:47:21;8.38;;;2.85;;
66603;SDS011;53460;39.612;8.822;2024-01-07T11:49:48;6.82;;;2.42;;
66603;SDS011;53460;39.612;8.822;2024-01-07T11:52:14;7.80;;;2.25;;
66603;SDS011;53460;39.612;8.822;2024-01-07T11:54:40;8.25;;;2.35;;
66603;SDS011;53460;39.612;8.822;2024-01-07T11:57:07;7.50;;;3.03;;
66603;SDS011;53460;39.612;8.822;2024-01-07T11:59:33;12.40;;;2.80;;
66603;SDS011;53460;39.612;8.822;2024-01-07T12:02:00;10.90;;;3.70;;
66603;SDS011;53460;39.612;8.822;2024-01-07T12:04:27;9.52;;;5.63;;
66603;SDS011;53460;39.612;8.822;2024-01-07T12:06:53;11.45;;;6.93;;
66603;SDS011;53460;39.612;8.822;2024-01-07T12:09:19;12.90;;;4.72;;
66603;SDS011;53460;39.612;8.822;2024-01-07T12:11:44;11.48;;;4.20;;
66603;SDS011;53460;39.612;8.822;2024-01-07T12:14:11;13.20;;;3.42;;
66603;SDS011;53460;39.612;8.822;2024-01-07T12:16:37;7.60;;;2.13;;
66603;SDS011;53460;39.612;8.822;2024-01-07T12:19:03;10.35;;;5.63;;
66603;SDS011;53460;39.612;8.822;2024-01-07T12:21:29;7.50;;;3.03;;
66603;SDS011;53460;39.612;8.822;2024-01-07T12:23:55;6.57;;;3.70;;
66603;SDS011;53460;39.612;8.822;2024-01-07T12:26:31;6.53;;;2.70;;
66603;SDS011;53460;39.612;8.822;2024-01-07T12:28:59;7.35;;;2.83;;
66603;SDS011;53460;39.612;8.822;2024-01-07T12:31:31;11.02;;;2.78;;
66603;SDS011;53460;39.612;8.822;2024-01-07T12:33:58;13.55;;;3.92;;
66603;SDS011;53460;39.612;8.822;2024-01-07T12:36:23;7.40;;;2.42;;
66603;SDS011;53460;39.612;8.822;2024-01-07T12:38:49;10.43;;;3.10;;
66603;SDS011;53460;39.612;8.822;2024-01-07T12:41:19;10.50;;;3.97;;
66603;SDS011;53460;39.612;8.822;2024-01-07T12:43:45;11.23;;;3.17;;
66603;SDS011;53460;39.612;8.822;2024-01-07T12:46:11;9.13;;;3.53;;
66603;SDS011;53460;39.612;8.822;2024-01-07T12:48:37;10.88;;;2.95;;
66603;SDS011;53460;39.612;8.822;2024-01-07T12:51:02;8.98;;;2.42;;
66603;SDS011;53460;39.612;8.822;2024-01-07T12:53:28;11.52;;;5.13;;
66603;SDS011;53460;39.612;8.822;2024-01-07T12:55:54;16.58;;;6.22;;
66603;SDS011;53460;39.612;8.822;2024-01-07T12:58:20;12.98;;;5.10;;
66603;SDS011;53460;39.612;8.822;2024-01-07T13:00:46;14.05;;;9.10;;
66603;SDS011;53460;39.612;8.822;2024-01-07T13:03:12;17.38;;;10.85;;
66603;SDS011;53460;39.612;8.822;2024-01-07T13:05:39;16.70;;;10.25;;
66603;SDS011;53460;39.612;8.822;2024-01-07T13:08:07;14.65;;;8.90;;
66603;SDS011;53460;39.612;8.822;2024-01-07T13:10:32;9.43;;;5.75;;
66603;SDS011;53460;39.612;8.822;2024-01-07T13:12:58;9.80;;;6.43;;
66603;SDS011;53460;39.612;8.822;2024-01-07T13:15:24;6.60;;;3.53;;
66603;SDS011;53460;39.612;8.822;2024-01-07T13:17:50;8.30;;;4.40;;
66603;SDS011;53460;39.612;8.822;2024-01-07T13:20:16;5.65;;;3.13;;
66603;SDS011;53460;39.612;8.822;2024-01-07T13:22:45;10.57;;;4.78;;
66603;SDS011;53460;39.612;8.822;2024-01-07T13:25:12;9.43;;;6.22;;
66603;SDS011;53460;39.612;8.822;2024-01-07T13:27:38;6.60;;;4.03;;
66603;SDS011;53460;39.612;8.822;2024-01-07T13:30:06;7.95;;;1.50;;
66603;SDS011;53460;39.612;8.822;2024-01-07T13:32:32;10.98;;;2.38;;
66603;SDS011;53460;39.612;8.822;2024-01-07T13:35:02;5.78;;;2.72;;
66603;SDS011;53460;39.612;8.822;2024-01-07T13:37:31;6.60;;;1.85;;
66603;SDS011;53460;39.612;8.822;2024-01-07T13:39:56;10.27;;;3.58;;
66603;SDS011;53460;39.612;8.822;2024-01-07T13:42:22;6.68;;;2.53;;
66603;SDS011;53460;39.612;8.822;2024-01-07T13:44:48;6.88;;;2.47;;
66603;SDS011;53460;39.612;8.822;2024-01-07T13:47:14;6.53;;;2.00;;
66603;SDS011;53460;39.612;8.822;2024-01-07T13:49:42;5.10;;;1.58;;
66603;SDS011;53460;39.612;8.822;2024-01-07T13:52:10;6.43;;;2.00;;
66603;SDS011;53460;39.612;8.822;2024-01-07T13:54:36;10.43;;;3.97;;
66603;SDS011;53460;39.612;8.822;2024-01-07T13:57:02;12.30;;;3.95;;
66603;SDS011;53460;39.612;8.822;2024-01-07T13:59:29;12.73;;;2.88;;
66603;SDS011;53460;39.612;8.822;2024-01-07T14:01:55;9.57;;;2.85;;
66603;SDS011;53460;39.612;8.822;2024-01-07T14:04:23;8.00;;;2.15;;
66603;SDS011;53460;39.612;8.822;2024-01-07T14:06:55;7.88;;;2.78;;
66603;SDS011;53460;39.612;8.822;2024-01-07T14:09:24;5.25;;;2.05;;
66603;SDS011;53460;39.612;8.822;2024-01-07T14:11:50;6.97;;;2.10;;
66603;SDS011;53460;39.612;8.822;2024-01-07T14:14:17;7.80;;;2.45;;
66603;SDS011;53460;39.612;8.822;2024-01-07T14:16:44;8.27;;;2.22;;
66603;SDS011;53460;39.612;8.822;2024-01-07T14:19:12;4.68;;;1.67;;
66603;SDS011;53460;39.612;8.822;2024-01-07T14:21:39;9.27;;;2.60;;
66603;SDS011;53460;39.612;8.822;2024-01-07T14:24:05;5.70;;;2.05;;
66603;SDS011;53460;39.612;8.822;2024-01-07T14:26:31;5.32;;;2.75;;
66603;SDS011;53460;39.612;8.822;2024-01-07T14:28:57;10.95;;;2.47;;
66603;SDS011;53460;39.612;8.822;2024-01-07T14:31:22;6.50;;;2.67;;
66603;SDS011;53460;39.612;8.822;2024-01-07T14:33:48;9.27;;;2.35;;
66603;SDS011;53460;39.612;8.822;2024-01-07T14:36:15;11.52;;;2.42;;
66603;SDS011;53460;39.612;8.822;2024-01-07T14:38:46;8.88;;;2.20;;